KCEZ

Cortez Municipal Airport

Cortez, Colorado, USA
METAR KCEZ 210353Z AUTO 07007KT 9SM CLR 18/02 A3016 RMK AO2 SLP137 T01830022
Observed Flight Rules
Aug-21 @ 03:53 UTC (18 minutes ago) Visual Flight Rules
Wind Visibility Clouds
70° at 7 knots 9 miles
  • Clear skies
Temperatures Readings
Current 18°C / 64°F
Dewpoint 2°C / 36°F
Humidity 34%
Altimeter 30.16" Hg
Pressure 1013.7 hPa
Elevation 1797
METAR KCEZ 210353Z AUTO 07007KT 9SM CLR 18/02 A3016 RMK AO2 SLP137 T01830022
Observed Flight Rules
Aug-21 @ 03:53 UTC
(18 minutes ago)
VFR
Wind Visibility
70° at 7 knots 9 miles
Clouds
  • Clear skies
Temperature Dewpoint
18°C / 64°F 2°C / 36°F
Humidity Altimeter Pressure
34% 30.16" Hg 1013.7 hPa